| time (UTC) | temp F | wind direction | speed knots | gust knots | rain 1hr in | rain 24hr in | rain mn in | humidity % | barometer mb |
| 20260504041231 | 53 | 57 | 0.9 | 0.9 | 0.00 | 0.00 | 0.00 | 64 | 1014.4 |
| 20260504040232 | 54 | 72 | 0.0 | 1.7 | 0.00 | 0.00 | 0.00 | 63 | 1014.4 |
| 20260504035231 | 54 | 74 | 0.0 | 1.7 | 0.00 | 0.00 | 0.00 | 62 | 1014.1 |
| 20260504034225 | 54 | 52 | 0.9 | 0.9 | 0.00 | 0.00 | 0.00 | 61 | 1014.3 |
| 20260504033220 | 54 | 61 | 0.0 | 1.7 | 0.00 | 0.00 | 0.00 | 60 | 1014.2 |
| 20260504032220 | 54 | 89 | 0.0 | 1.7 | 0.00 | 0.00 | 0.00 | 59 | 1014.3 |
| 20260504031219 | 54 | 57 | 1.7 | 1.7 | 0.00 | 0.00 | 0.00 | 58 | 1014.1 |
| 20260504030218 | 54 | 22 | 0.0 | 1.7 | 0.00 | 0.00 | 0.00 | 57 | 1014.0 |
| 20260504025217 | 55 | 58 | 0.0 | 0.0 | 0.00 | 0.00 | 0.00 | 57 | 1013.9 |
| 20260504024217 | 55 | 45 | 1.7 | 1.7 | 0.00 | 0.00 | 0.00 | 56 | 1013.9 |
| 20260504023215 | 55 | 113 | 0.0 | 0.9 | 0.00 | 0.00 | 0.00 | 54 | 1013.5 |
| 20260504022214 | 55 | 44 | 0.0 | 0.9 | 0.00 | 0.00 | 0.00 | 54 | 1013.5 |
| 20260504021214 | 55 | 49 | 0.0 | 0.0 | 0.00 | 0.00 | 0.00 | 54 | 1013.6 |
| 20260504020214 | 56 | 38 | 0.0 | 0.0 | 0.00 | 0.00 | 0.00 | 54 | 1013.7 |
| 20260504015212 | 56 | 45 | 0.0 | 0.9 | 0.00 | 0.00 | 0.00 | 53 | 1013.6 |
| 20260504014211 | 56 | 54 | 0.0 | 1.7 | 0.00 | 0.00 | 0.00 | 53 | 1013.5 |
| 20260504013212 | 56 | 309 | 0.0 | 0.0 | 0.00 | 0.00 | 0.00 | 54 | 1013.5 |
| 20260504012206 | 57 | 17 | 0.0 | 0.0 | 0.00 | 0.00 | 0.00 | 52 | 1013.3 |
| 20260504011205 | 57 | 42 | 0.0 | 0.9 | 0.00 | 0.00 | 0.00 | 51 | 1013.2 |
| 20260504010203 | 58 | 66 | 0.0 | 0.0 | 0.00 | 0.00 | 0.00 | 51 | 1013.4 |
| 20260504005203 | 58 | 50 | 0.0 | 0.9 | 0.00 | 0.00 | 0.00 | 49 | 1013.2 |
| 20260504004157 | 59 | 44 | 0.0 | 0.0 | 0.00 | 0.00 | 0.00 | 48 | 1013.1 |
| 20260504003156 | 60 | 322 | 0.0 | 0.0 | 0.00 | 0.00 | 0.00 | 47 | 1013.1 |
| 20260504002156 | 61 | 322 | 0.0 | 0.0 | 0.00 | 0.00 | 0.00 | 45 | 1013.1 |
| 20260504001156 | 62 | 345 | 0.0 | 0.0 | 0.00 | 0.00 | 0.00 | 42 | 1013.1 |
| 20260504000156 | 63 | 0 | 0.0 | 0.0 | 0.00 | 0.00 | 0.00 | 41 | 1012.9 |
| 20260503235151 | 65 | 22 | 0.0 | 0.9 | 0.00 | 0.00 | 0.00 | 39 | 1013.0 |
| 20260503234147 | 66 | 0 | 0.0 | 0.9 | 0.00 | 0.00 | 0.00 | 40 | 1013.1 |
| 20260503233145 | 67 | 324 | 0.0 | 1.7 | 0.00 | 0.00 | 0.00 | 37 | 1013.1 |
| 20260503232145 | 68 | 70 | 0.0 | 1.7 | 0.00 | 0.00 | 0.00 | 38 | 1013.2 |
| 20260503231145 | 69 | 253 | 0.0 | 1.7 | 0.00 | 0.00 | 0.00 | 31 | 1013.2 |
| 20260503230145 | 69 | 48 | 0.0 | 2.6 | 0.00 | 0.00 | 0.00 | 31 | 1013.3 |
| 20260503225142 | 69 | 180 | 0.0 | 3.5 | 0.00 | 0.00 | 0.00 | 31 | 1013.1 |
| 20260503224137 | 70 | 248 | 0.0 | 1.7 | 0.00 | 0.00 | 0.00 | 31 | 1013.3 |
| 20260503223137 | 70 | 60 | 1.7 | 1.7 | 0.00 | 0.00 | 0.00 | 30 | 1013.3 |
| 20260503222132 | 70 | 159 | 1.7 | 5.2 | 0.00 | 0.00 | 0.00 | 31 | 1013.4 |
| 20260503221127 | 70 | 227 | 0.9 | 2.6 | 0.00 | 0.00 | 0.00 | 31 | 1013.5 |
| 20260503220126 | 70 | 69 | 0.0 | 1.7 | 0.00 | 0.00 | 0.00 | 32 | 1013.3 |
| 20260503215126 | 70 | 181 | 2.6 | 2.6 | 0.00 | 0.00 | 0.00 | 33 | 1013.4 |
| 20260503214120 | 70 | 117 | 4.3 | 10.4 | 0.00 | 0.00 | 0.00 | 32 | 1013.6 |
| 20260503213116 | 70 | 212 | 0.9 | 6.1 | 0.00 | 0.00 | 0.00 | 32 | 1013.8 |
| 20260503212111 | 71 | 11 | 1.7 | 4.3 | 0.00 | 0.00 | 0.00 | 32 | 1013.8 |
| 20260503211109 | 70 | 185 | 1.7 | 2.6 | 0.00 | 0.00 | 0.00 | 33 | 1013.9 |
| 20260503210108 | 69 | 52 | 0.9 | 7.8 | 0.00 | 0.00 | 0.00 | 32 | 1014.0 |
| 20260503205107 | 70 | 136 | 3.5 | 4.3 | 0.00 | 0.00 | 0.00 | 30 | 1014.1 |
| 20260503204101 | 71 | 136 | 3.5 | 4.3 | 0.00 | 0.00 | 0.00 | 30 | 1014.4 |
| 20260503203101 | 70 | 54 | 2.6 | 6.1 | 0.00 | 0.00 | 0.00 | 29 | 1014.4 |
| 20260503202056 | 71 | 76 | 2.6 | 5.2 | 0.00 | 0.00 | 0.00 | 28 | 1014.9 |
| 20260503201051 | 70 | 158 | 2.6 | 10.4 | 0.00 | 0.00 | 0.00 | 27 | 1015.0 |
| 20260503200050 | 70 | 190 | 1.7 | 4.3 | 0.00 | 0.00 | 0.00 | 26 | 1015.2 |
| 20260503195050 | 71 | 216 | 0.0 | 7.0 | 0.00 | 0.00 | 0.00 | 28 | 1015.4 |
| 20260503194047 | 71 | 227 | 2.6 | 5.2 | 0.00 | 0.00 | 0.00 | 28 | 1015.5 |
| 20260503193044 | 72 | 224 | 5.2 | 6.1 | 0.00 | 0.00 | 0.00 | 28 | 1015.6 |
| 20260503192042 | 70 | 276 | 0.9 | 7.8 | 0.00 | 0.00 | 0.00 | 30 | 1015.7 |
| 20260503191042 | 70 | 119 | 4.3 | 6.1 | 0.00 | 0.00 | 0.00 | 32 | 1015.9 |
| 20260503190042 | 69 | 124 | 4.3 | 8.7 | 0.00 | 0.00 | 0.00 | 31 | 1016.0 |
| 20260503185038 | 68 | 315 | 6.1 | 6.1 | 0.00 | 0.00 | 0.00 | 33 | 1016.1 |
| 20260503184037 | 68 | 237 | 3.5 | 5.2 | 0.00 | 0.00 | 0.00 | 33 | 1016.2 |
| 20260503183037 | 66 | 192 | 2.6 | 10.4 | 0.00 | 0.00 | 0.00 | 33 | 1016.6 |
| 20260503182033 | 68 | 55 | 0.0 | 4.3 | 0.00 | 0.00 | 0.00 | 33 | 1016.7 |
| 20260503181032 | 69 | 323 | 0.9 | 2.6 | 0.00 | 0.00 | 0.00 | 31 | 1016.7 |
| 20260503180026 | 67 | 105 | 2.6 | 3.5 | 0.00 | 0.00 | 0.00 | 32 | 1016.7 |
| 20260503175026 | 68 | 163 | 1.7 | 2.6 | 0.00 | 0.00 | 0.00 | 31 | 1016.9 |
| 20260503174026 | 68 | 131 | 1.7 | 3.5 | 0.00 | 0.00 | 0.00 | 33 | 1017.4 |
| 20260503173023 | 68 | 336 | 0.9 | 3.5 | 0.00 | 0.00 | 0.00 | 30 | 1017.4 |
| 20260503172024 | 65 | 133 | 1.7 | 7.8 | 0.00 | 0.00 | 0.00 | 35 | 1017.6 |
| 20260503171018 | 69 | 347 | 0.0 | 2.6 | 0.00 | 0.00 | 0.00 | 30 | 1017.7 |
| 20260503150948 | 66 | 2 | 0.0 | 2.6 | 0.00 | 0.00 | 0.00 | 38 | 1018.6 |
| 20260503130921 | 57 | 79 | 1.7 | 2.6 | 0.00 | 0.00 | 0.00 | 60 | 1018.5 |
| 20260503080813 | 46 | 86 | 1.7 | 2.6 | 0.00 | 0.00 | 0.00 | 82 | 1016.0 |
| 20260503072805 | 47 | 47 | 1.7 | 1.7 | 0.00 | 0.00 | 0.00 | 80 | 1015.7 |
| 20260503071803 | 48 | 0 | 0.0 | 1.7 | 0.00 | 0.00 | 0.00 | 80 | 1015.6 |
| 20260503070803 | 48 | 89 | 0.0 | 1.7 | 0.00 | 0.00 | 0.00 | 80 | 1015.7 |
| 20260503054743 | 48 | 67 | 1.7 | 2.6 | 0.00 | 0.00 | 0.00 | 78 | 1015.5 |
| 20260503053744 | 48 | 104 | 1.7 | 1.7 | 0.00 | 0.00 | 0.00 | 78 | 1015.5 |
| 20260503052744 | 48 | 80 | 1.7 | 1.7 | 0.00 | 0.00 | 0.00 | 77 | 1015.6 |
| 20260503051742 | 49 | 89 | 0.9 | 1.7 | 0.00 | 0.00 | 0.00 | 77 | 1015.4 |
| 20260503050736 | 48 | 60 | 0.9 | 1.7 | 0.00 | 0.00 | 0.00 | 76 | 1015.3 |
| 20260503045736 | 49 | 82 | 1.7 | 1.7 | 0.00 | 0.00 | 0.00 | 74 | 1015.2 |
| 20260503044736 | 50 | 112 | 0.9 | 1.7 | 0.00 | 0.00 | 0.00 | 73 | 1015.3 |
| 20260503043730 | 50 | 52 | 0.9 | 1.7 | 0.00 | 0.00 | 0.00 | 72 | 1015.1 |
| 20260503042729 | 50 | 108 | 0.9 | 1.7 | 0.00 | 0.00 | 0.00 | 71 | 1014.9 |